sensor_id;sensor_type;location;lat;lon;timestamp;P1;durP1;ratioP1;P2;durP2;ratioP2
59685;SDS011;45554;51.096;16.976;2022-09-17T00:02:33;4.10;;;1.50;;
59685;SDS011;45554;51.096;16.976;2022-09-17T00:05:18;5.80;;;1.80;;
59685;SDS011;45554;51.096;16.976;2022-09-17T00:11:10;3.50;;;1.60;;
59685;SDS011;45554;51.096;16.976;2022-09-17T00:13:57;4.90;;;1.60;;
59685;SDS011;45554;51.096;16.976;2022-09-17T00:16:47;5.30;;;1.60;;
59685;SDS011;45554;51.096;16.976;2022-09-17T00:19:21;7.30;;;1.90;;
59685;SDS011;45554;51.096;16.976;2022-09-17T00:22:04;6.40;;;1.40;;
59685;SDS011;45554;51.096;16.976;2022-09-17T00:24:34;4.70;;;1.70;;
59685;SDS011;45554;51.096;16.976;2022-09-17T00:27:31;5.10;;;1.70;;
59685;SDS011;45554;51.096;16.976;2022-09-17T00:30:32;4.40;;;1.70;;
59685;SDS011;45554;51.096;16.976;2022-09-17T00:33:15;3.70;;;1.50;;
59685;SDS011;45554;51.096;16.976;2022-09-17T00:39:03;6.00;;;1.60;;
59685;SDS011;45554;51.096;16.976;2022-09-17T00:42:07;2.50;;;1.50;;
59685;SDS011;45554;51.096;16.976;2022-09-17T00:44:52;3.80;;;1.30;;
59685;SDS011;45554;51.096;16.976;2022-09-17T00:47:40;6.30;;;1.80;;
59685;SDS011;45554;51.096;16.976;2022-09-17T00:53:44;3.60;;;1.20;;
59685;SDS011;45554;51.096;16.976;2022-09-17T00:56:21;4.90;;;1.50;;
59685;SDS011;45554;51.096;16.976;2022-09-17T00:59:01;3.60;;;1.30;;
59685;SDS011;45554;51.096;16.976;2022-09-17T01:01:53;4.20;;;1.50;;
59685;SDS011;45554;51.096;16.976;2022-09-17T01:04:39;5.20;;;1.60;;
59685;SDS011;45554;51.096;16.976;2022-09-17T01:13:19;3.10;;;1.20;;
59685;SDS011;45554;51.096;16.976;2022-09-17T01:16:38;3.10;;;1.20;;
59685;SDS011;45554;51.096;16.976;2022-09-17T01:25:57;4.10;;;1.40;;
59685;SDS011;45554;51.096;16.976;2022-09-17T01:31:52;4.00;;;1.30;;
59685;SDS011;45554;51.096;16.976;2022-09-17T01:38:17;3.40;;;1.50;;
59685;SDS011;45554;51.096;16.976;2022-09-17T01:41:14;2.70;;;1.20;;
59685;SDS011;45554;51.096;16.976;2022-09-17T01:48:31;4.00;;;1.60;;
59685;SDS011;45554;51.096;16.976;2022-09-17T01:51:10;6.40;;;1.90;;
59685;SDS011;45554;51.096;16.976;2022-09-17T01:54:10;4.70;;;1.50;;
59685;SDS011;45554;51.096;16.976;2022-09-17T01:56:58;5.20;;;1.70;;
59685;SDS011;45554;51.096;16.976;2022-09-17T01:59:35;5.90;;;1.70;;
59685;SDS011;45554;51.096;16.976;2022-09-17T02:02:34;3.90;;;1.50;;
59685;SDS011;45554;51.096;16.976;2022-09-17T02:05:09;4.30;;;1.60;;
59685;SDS011;45554;51.096;16.976;2022-09-17T02:08:09;4.00;;;1.50;;
59685;SDS011;45554;51.096;16.976;2022-09-17T02:10:50;4.20;;;1.70;;
59685;SDS011;45554;51.096;16.976;2022-09-17T02:14:20;3.30;;;1.50;;
59685;SDS011;45554;51.096;16.976;2022-09-17T02:17:44;3.40;;;1.40;;
59685;SDS011;45554;51.096;16.976;2022-09-17T02:20:29;2.90;;;1.40;;
59685;SDS011;45554;51.096;16.976;2022-09-17T02:23:11;3.50;;;1.60;;
59685;SDS011;45554;51.096;16.976;2022-09-17T02:25:59;2.90;;;1.50;;
59685;SDS011;45554;51.096;16.976;2022-09-17T02:28:47;6.10;;;1.90;;
59685;SDS011;45554;51.096;16.976;2022-09-17T02:31:26;3.60;;;1.50;;
59685;SDS011;45554;51.096;16.976;2022-09-17T02:33:59;4.10;;;1.30;;
59685;SDS011;45554;51.096;16.976;2022-09-17T02:36:32;3.80;;;1.30;;
59685;SDS011;45554;51.096;16.976;2022-09-17T02:41:53;4.50;;;1.80;;
59685;SDS011;45554;51.096;16.976;2022-09-17T02:44:56;2.80;;;1.40;;
59685;SDS011;45554;51.096;16.976;2022-09-17T02:51:22;3.60;;;1.80;;
59685;SDS011;45554;51.096;16.976;2022-09-17T02:54:30;3.50;;;1.50;;
59685;SDS011;45554;51.096;16.976;2022-09-17T03:00:46;5.90;;;1.70;;
59685;SDS011;45554;51.096;16.976;2022-09-17T03:03:36;6.20;;;1.60;;
59685;SDS011;45554;51.096;16.976;2022-09-17T03:06:12;2.70;;;1.20;;
59685;SDS011;45554;51.096;16.976;2022-09-17T03:08:50;3.10;;;1.60;;
59685;SDS011;45554;51.096;16.976;2022-09-17T03:11:27;4.10;;;1.60;;
59685;SDS011;45554;51.096;16.976;2022-09-17T03:14:15;2.60;;;1.80;;
59685;SDS011;45554;51.096;16.976;2022-09-17T03:16:50;8.10;;;1.90;;
59685;SDS011;45554;51.096;16.976;2022-09-17T03:19:19;3.70;;;1.70;;
59685;SDS011;45554;51.096;16.976;2022-09-17T03:21:59;4.70;;;1.40;;
59685;SDS011;45554;51.096;16.976;2022-09-17T03:24:48;5.50;;;1.50;;
59685;SDS011;45554;51.096;16.976;2022-09-17T03:27:46;6.30;;;2.10;;
59685;SDS011;45554;51.096;16.976;2022-09-17T03:30:30;2.70;;;1.70;;
59685;SDS011;45554;51.096;16.976;2022-09-17T03:38:57;2.90;;;1.30;;
59685;SDS011;45554;51.096;16.976;2022-09-17T03:41:41;3.50;;;1.50;;
59685;SDS011;45554;51.096;16.976;2022-09-17T03:44:30;4.40;;;1.60;;
59685;SDS011;45554;51.096;16.976;2022-09-17T03:47:02;4.70;;;1.50;;
59685;SDS011;45554;51.096;16.976;2022-09-17T03:49:54;4.00;;;1.20;;
59685;SDS011;45554;51.096;16.976;2022-09-17T03:52:37;4.00;;;1.40;;
59685;SDS011;45554;51.096;16.976;2022-09-17T03:55:28;3.70;;;1.50;;
59685;SDS011;45554;51.096;16.976;2022-09-17T03:58:14;2.40;;;1.40;;
59685;SDS011;45554;51.096;16.976;2022-09-17T04:00:48;4.40;;;1.40;;
59685;SDS011;45554;51.096;16.976;2022-09-17T04:03:23;4.50;;;1.40;;
59685;SDS011;45554;51.096;16.976;2022-09-17T04:06:02;4.80;;;1.50;;
59685;SDS011;45554;51.096;16.976;2022-09-17T04:08:59;3.40;;;1.50;;
59685;SDS011;45554;51.096;16.976;2022-09-17T04:11:40;5.60;;;1.70;;
59685;SDS011;45554;51.096;16.976;2022-09-17T04:14:15;5.00;;;1.70;;
59685;SDS011;45554;51.096;16.976;2022-09-17T04:17:04;6.80;;;1.90;;
59685;SDS011;45554;51.096;16.976;2022-09-17T04:19:42;3.00;;;1.80;;
59685;SDS011;45554;51.096;16.976;2022-09-17T04:22:31;4.80;;;1.70;;
59685;SDS011;45554;51.096;16.976;2022-09-17T04:25:03;5.50;;;1.60;;
59685;SDS011;45554;51.096;16.976;2022-09-17T04:27:44;6.10;;;1.80;;
59685;SDS011;45554;51.096;16.976;2022-09-17T04:30:28;4.00;;;1.80;;
59685;SDS011;45554;51.096;16.976;2022-09-17T04:33:05;4.00;;;1.80;;
59685;SDS011;45554;51.096;16.976;2022-09-17T04:35:45;3.20;;;1.70;;
59685;SDS011;45554;51.096;16.976;2022-09-17T04:38:14;5.10;;;2.10;;
59685;SDS011;45554;51.096;16.976;2022-09-17T04:40:50;3.70;;;1.80;;
59685;SDS011;45554;51.096;16.976;2022-09-17T04:43:37;4.20;;;1.90;;
59685;SDS011;45554;51.096;16.976;2022-09-17T04:46:44;4.90;;;1.70;;
59685;SDS011;45554;51.096;16.976;2022-09-17T04:49:57;4.90;;;1.70;;
59685;SDS011;45554;51.096;16.976;2022-09-17T04:52:28;3.80;;;1.60;;
59685;SDS011;45554;51.096;16.976;2022-09-17T04:55:11;5.60;;;1.90;;
59685;SDS011;45554;51.096;16.976;2022-09-17T04:57:45;4.70;;;2.10;;
59685;SDS011;45554;51.096;16.976;2022-09-17T05:00:23;3.90;;;1.70;;
59685;SDS011;45554;51.096;16.976;2022-09-17T05:03:19;3.30;;;1.50;;
59685;SDS011;45554;51.096;16.976;2022-09-17T05:05:54;6.00;;;1.90;;
59685;SDS011;45554;51.096;16.976;2022-09-17T05:08:25;2.80;;;1.50;;
59685;SDS011;45554;51.096;16.976;2022-09-17T05:11:08;3.30;;;1.30;;
59685;SDS011;45554;51.096;16.976;2022-09-17T05:14:35;5.70;;;1.70;;
59685;SDS011;45554;51.096;16.976;2022-09-17T05:17:04;3.40;;;1.50;;
59685;SDS011;45554;51.096;16.976;2022-09-17T05:19:55;4.20;;;1.80;;
59685;SDS011;45554;51.096;16.976;2022-09-17T05:22:45;5.80;;;1.70;;
59685;SDS011;45554;51.096;16.976;2022-09-17T05:25:18;4.30;;;1.70;;
59685;SDS011;45554;51.096;16.976;2022-09-17T05:28:06;5.10;;;1.50;;
59685;SDS011;45554;51.096;16.976;2022-09-17T05:30:38;7.40;;;1.60;;
59685;SDS011;45554;51.096;16.976;2022-09-17T05:33:10;4.40;;;1.40;;
59685;SDS011;45554;51.096;16.976;2022-09-17T05:35:45;4.80;;;1.50;;
59685;SDS011;45554;51.096;16.976;2022-09-17T05:38:35;4.10;;;1.50;;
59685;SDS011;45554;51.096;16.976;2022-09-17T05:41:11;4.70;;;2.10;;
59685;SDS011;45554;51.096;16.976;2022-09-17T05:43:41;3.30;;;1.50;;
59685;SDS011;45554;51.096;16.976;2022-09-17T05:46:10;4.50;;;1.50;;
59685;SDS011;45554;51.096;16.976;2022-09-17T05:48:39;4.60;;;1.80;;
59685;SDS011;45554;51.096;16.976;2022-09-17T05:51:11;5.50;;;1.90;;
59685;SDS011;45554;51.096;16.976;2022-09-17T05:53:52;7.70;;;1.90;;
59685;SDS011;45554;51.096;16.976;2022-09-17T05:56:52;5.50;;;1.70;;
59685;SDS011;45554;51.096;16.976;2022-09-17T05:59:26;4.30;;;1.80;;
59685;SDS011;45554;51.096;16.976;2022-09-17T06:01:59;6.40;;;1.70;;
59685;SDS011;45554;51.096;16.976;2022-09-17T06:04:30;6.40;;;1.90;;
59685;SDS011;45554;51.096;16.976;2022-09-17T06:07:10;8.00;;;1.80;;
59685;SDS011;45554;51.096;16.976;2022-09-17T06:10:16;6.90;;;2.00;;
59685;SDS011;45554;51.096;16.976;2022-09-17T06:12:53;6.40;;;1.90;;
59685;SDS011;45554;51.096;16.976;2022-09-17T06:16:11;6.20;;;1.90;;
59685;SDS011;45554;51.096;16.976;2022-09-17T06:18:52;5.40;;;1.70;;
59685;SDS011;45554;51.096;16.976;2022-09-17T06:21:45;8.70;;;2.10;;
59685;SDS011;45554;51.096;16.976;2022-09-17T06:24:47;5.60;;;1.90;;
59685;SDS011;45554;51.096;16.976;2022-09-17T06:27:36;6.80;;;2.10;;
59685;SDS011;45554;51.096;16.976;2022-09-17T06:30:28;8.70;;;2.10;;
59685;SDS011;45554;51.096;16.976;2022-09-17T06:33:15;5.30;;;1.90;;
59685;SDS011;45554;51.096;16.976;2022-09-17T06:36:03;5.30;;;2.00;;
59685;SDS011;45554;51.096;16.976;2022-09-17T06:38:42;6.70;;;1.90;;
59685;SDS011;45554;51.096;16.976;2022-09-17T06:41:15;7.30;;;1.70;;
59685;SDS011;45554;51.096;16.976;2022-09-17T06:43:52;6.60;;;2.00;;
59685;SDS011;45554;51.096;16.976;2022-09-17T06:46:43;7.60;;;1.90;;
59685;SDS011;45554;51.096;16.976;2022-09-17T06:49:16;7.40;;;2.10;;
59685;SDS011;45554;51.096;16.976;2022-09-17T06:51:49;7.00;;;2.30;;
59685;SDS011;45554;51.096;16.976;2022-09-17T06:54:23;8.60;;;2.10;;
59685;SDS011;45554;51.096;16.976;2022-09-17T06:56:56;8.00;;;1.70;;
59685;SDS011;45554;51.096;16.976;2022-09-17T06:59:25;7.10;;;1.80;;
59685;SDS011;45554;51.096;16.976;2022-09-17T07:02:03;5.60;;;1.90;;
59685;SDS011;45554;51.096;16.976;2022-09-17T07:04:34;6.90;;;1.90;;
59685;SDS011;45554;51.096;16.976;2022-09-17T07:07:06;4.40;;;1.90;;
59685;SDS011;45554;51.096;16.976;2022-09-17T07:09:40;8.00;;;2.10;;
59685;SDS011;45554;51.096;16.976;2022-09-17T07:12:18;8.70;;;2.10;;
59685;SDS011;45554;51.096;16.976;2022-09-17T07:14:50;6.20;;;1.90;;
59685;SDS011;45554;51.096;16.976;2022-09-17T07:17:28;6.60;;;1.90;;
59685;SDS011;45554;51.096;16.976;2022-09-17T07:20:01;10.00;;;2.00;;
59685;SDS011;45554;51.096;16.976;2022-09-17T07:22:37;4.90;;;1.90;;
59685;SDS011;45554;51.096;16.976;2022-09-17T07:25:09;5.00;;;1.80;;
59685;SDS011;45554;51.096;16.976;2022-09-17T07:27:41;5.80;;;2.00;;
59685;SDS011;45554;51.096;16.976;2022-09-17T07:30:10;6.20;;;2.00;;
59685;SDS011;45554;51.096;16.976;2022-09-17T07:32:43;5.70;;;2.00;;
59685;SDS011;45554;51.096;16.976;2022-09-17T07:35:33;6.10;;;2.10;;
59685;SDS011;45554;51.096;16.976;2022-09-17T07:38:05;8.00;;;2.00;;
59685;SDS011;45554;51.096;16.976;2022-09-17T07:40:33;6.20;;;2.20;;
59685;SDS011;45554;51.096;16.976;2022-09-17T07:43:01;7.60;;;2.10;;
59685;SDS011;45554;51.096;16.976;2022-09-17T07:45:34;4.20;;;1.60;;
59685;SDS011;45554;51.096;16.976;2022-09-17T07:50:32;6.50;;;2.40;;
59685;SDS011;45554;51.096;16.976;2022-09-17T07:53:02;7.10;;;2.50;;
59685;SDS011;45554;51.096;16.976;2022-09-17T07:55:30;5.70;;;1.90;;
59685;SDS011;45554;51.096;16.976;2022-09-17T07:57:59;6.20;;;2.40;;
59685;SDS011;45554;51.096;16.976;2022-09-17T08:00:27;8.20;;;2.10;;
59685;SDS011;45554;51.096;16.976;2022-09-17T08:02:55;5.70;;;2.00;;
59685;SDS011;45554;51.096;16.976;2022-09-17T08:05:25;7.50;;;2.00;;
59685;SDS011;45554;51.096;16.976;2022-09-17T08:07:54;5.90;;;1.80;;
59685;SDS011;45554;51.096;16.976;2022-09-17T08:10:30;4.30;;;1.90;;
59685;SDS011;45554;51.096;16.976;2022-09-17T08:12:59;6.30;;;2.10;;
59685;SDS011;45554;51.096;16.976;2022-09-17T08:15:31;4.90;;;1.70;;
59685;SDS011;45554;51.096;16.976;2022-09-17T08:18:02;5.00;;;1.90;;
59685;SDS011;45554;51.096;16.976;2022-09-17T08:20:42;4.80;;;2.10;;
59685;SDS011;45554;51.096;16.976;2022-09-17T08:23:10;5.80;;;2.20;;
59685;SDS011;45554;51.096;16.976;2022-09-17T08:25:41;4.10;;;2.10;;
59685;SDS011;45554;51.096;16.976;2022-09-17T08:28:09;7.70;;;2.30;;
59685;SDS011;45554;51.096;16.976;2022-09-17T08:30:38;7.60;;;2.20;;
59685;SDS011;45554;51.096;16.976;2022-09-17T08:33:16;6.50;;;2.40;;
59685;SDS011;45554;51.096;16.976;2022-09-17T08:38:29;5.40;;;2.40;;
59685;SDS011;45554;51.096;16.976;2022-09-17T08:44:13;5.10;;;1.90;;
59685;SDS011;45554;51.096;16.976;2022-09-17T08:49:29;7.80;;;2.40;;
59685;SDS011;45554;51.096;16.976;2022-09-17T08:55:03;6.40;;;2.20;;
59685;SDS011;45554;51.096;16.976;2022-09-17T08:57:53;6.50;;;2.40;;
59685;SDS011;45554;51.096;16.976;2022-09-17T09:00:54;7.00;;;2.80;;
59685;SDS011;45554;51.096;16.976;2022-09-17T09:09:43;5.70;;;2.50;;
59685;SDS011;45554;51.096;16.976;2022-09-17T09:12:24;6.60;;;2.20;;
59685;SDS011;45554;51.096;16.976;2022-09-17T09:14:57;6.70;;;2.80;;
59685;SDS011;45554;51.096;16.976;2022-09-17T09:17:32;4.10;;;2.30;;
59685;SDS011;45554;51.096;16.976;2022-09-17T09:20:10;4.60;;;2.60;;
59685;SDS011;45554;51.096;16.976;2022-09-17T09:23:17;6.10;;;2.40;;
59685;SDS011;45554;51.096;16.976;2022-09-17T09:25:56;5.50;;;2.50;;
59685;SDS011;45554;51.096;16.976;2022-09-17T09:34:43;6.00;;;2.90;;
59685;SDS011;45554;51.096;16.976;2022-09-17T09:37:24;4.70;;;2.70;;
59685;SDS011;45554;51.096;16.976;2022-09-17T09:39:56;5.70;;;2.60;;
59685;SDS011;45554;51.096;16.976;2022-09-17T09:42:43;6.90;;;3.00;;
59685;SDS011;45554;51.096;16.976;2022-09-17T09:45:37;6.30;;;3.10;;
59685;SDS011;45554;51.096;16.976;2022-09-17T09:51:19;6.80;;;3.00;;
59685;SDS011;45554;51.096;16.976;2022-09-17T09:57:11;6.20;;;2.80;;
59685;SDS011;45554;51.096;16.976;2022-09-17T09:59:51;4.30;;;3.00;;
59685;SDS011;45554;51.096;16.976;2022-09-17T10:03:01;5.30;;;2.70;;
59685;SDS011;45554;51.096;16.976;2022-09-17T10:05:37;4.60;;;2.70;;
59685;SDS011;45554;51.096;16.976;2022-09-17T10:08:10;4.80;;;2.90;;
59685;SDS011;45554;51.096;16.976;2022-09-17T10:10:53;4.80;;;2.90;;
59685;SDS011;45554;51.096;16.976;2022-09-17T10:13:32;4.40;;;2.70;;
59685;SDS011;45554;51.096;16.976;2022-09-17T10:16:14;4.90;;;2.70;;
59685;SDS011;45554;51.096;16.976;2022-09-17T10:21:40;7.50;;;2.80;;
59685;SDS011;45554;51.096;16.976;2022-09-17T10:24:27;6.30;;;2.90;;
59685;SDS011;45554;51.096;16.976;2022-09-17T10:27:04;4.20;;;2.30;;
59685;SDS011;45554;51.096;16.976;2022-09-17T10:32:37;4.10;;;2.50;;
59685;SDS011;45554;51.096;16.976;2022-09-17T10:37:48;4.50;;;2.30;;
59685;SDS011;45554;51.096;16.976;2022-09-17T10:45:59;3.40;;;1.50;;
59685;SDS011;45554;51.096;16.976;2022-09-17T10:48:30;6.60;;;1.90;;
59685;SDS011;45554;51.096;16.976;2022-09-17T10:51:05;4.50;;;1.90;;
59685;SDS011;45554;51.096;16.976;2022-09-17T10:56:34;4.20;;;1.50;;
59685;SDS011;45554;51.096;16.976;2022-09-17T10:59:19;2.70;;;1.50;;
59685;SDS011;45554;51.096;16.976;2022-09-17T11:02:07;3.80;;;1.70;;
59685;SDS011;45554;51.096;16.976;2022-09-17T11:04:50;3.20;;;1.50;;
59685;SDS011;45554;51.096;16.976;2022-09-17T11:16:21;4.00;;;1.80;;
59685;SDS011;45554;51.096;16.976;2022-09-17T11:20:04;3.20;;;1.70;;
59685;SDS011;45554;51.096;16.976;2022-09-17T11:29:23;3.50;;;1.50;;
59685;SDS011;45554;51.096;16.976;2022-09-17T11:32:25;3.40;;;1.60;;
59685;SDS011;45554;51.096;16.976;2022-09-17T11:37:55;4.40;;;1.60;;
59685;SDS011;45554;51.096;16.976;2022-09-17T11:43:20;3.10;;;1.30;;
59685;SDS011;45554;51.096;16.976;2022-09-17T11:48:36;3.50;;;1.60;;
59685;SDS011;45554;51.096;16.976;2022-09-17T11:54:05;3.80;;;1.30;;
59685;SDS011;45554;51.096;16.976;2022-09-17T11:56:43;3.50;;;1.50;;
59685;SDS011;45554;51.096;16.976;2022-09-17T12:02:13;5.70;;;2.60;;
59685;SDS011;45554;51.096;16.976;2022-09-17T12:04:55;3.30;;;1.30;;
59685;SDS011;45554;51.096;16.976;2022-09-17T12:07:47;4.20;;;1.30;;
59685;SDS011;45554;51.096;16.976;2022-09-17T12:13:33;4.60;;;1.50;;
59685;SDS011;45554;51.096;16.976;2022-09-17T12:16:09;2.80;;;1.30;;
59685;SDS011;45554;51.096;16.976;2022-09-17T12:24:24;3.30;;;1.40;;
59685;SDS011;45554;51.096;16.976;2022-09-17T12:29:48;3.90;;;1.40;;
59685;SDS011;45554;51.096;16.976;2022-09-17T12:46:16;3.10;;;0.90;;
59685;SDS011;45554;51.096;16.976;2022-09-17T12:57:37;2.00;;;0.70;;
59685;SDS011;45554;51.096;16.976;2022-09-17T13:00:16;3.30;;;0.80;;
59685;SDS011;45554;51.096;16.976;2022-09-17T13:11:28;3.60;;;0.80;;
59685;SDS011;45554;51.096;16.976;2022-09-17T13:17:17;5.10;;;1.00;;
59685;SDS011;45554;51.096;16.976;2022-09-17T13:19:58;4.30;;;1.30;;
59685;SDS011;45554;51.096;16.976;2022-09-17T13:22:49;4.50;;;1.30;;
59685;SDS011;45554;51.096;16.976;2022-09-17T13:25:19;3.40;;;1.00;;
59685;SDS011;45554;51.096;16.976;2022-09-17T13:27:49;2.70;;;1.10;;
59685;SDS011;45554;51.096;16.976;2022-09-17T13:36:36;4.30;;;1.20;;
59685;SDS011;45554;51.096;16.976;2022-09-17T13:39:30;2.70;;;1.30;;
59685;SDS011;45554;51.096;16.976;2022-09-17T13:42:24;5.60;;;1.60;;
59685;SDS011;45554;51.096;16.976;2022-09-17T13:45:06;4.80;;;1.20;;
59685;SDS011;45554;51.096;16.976;2022-09-17T13:48:03;5.10;;;1.30;;
59685;SDS011;45554;51.096;16.976;2022-09-17T13:50:35;4.80;;;1.20;;
59685;SDS011;45554;51.096;16.976;2022-09-17T13:55:49;5.70;;;1.00;;
59685;SDS011;45554;51.096;16.976;2022-09-17T14:01:06;5.70;;;1.30;;
59685;SDS011;45554;51.096;16.976;2022-09-17T14:03:48;5.80;;;2.30;;
59685;SDS011;45554;51.096;16.976;2022-09-17T14:06:44;3.60;;;1.30;;
59685;SDS011;45554;51.096;16.976;2022-09-17T14:09:30;6.00;;;1.20;;
59685;SDS011;45554;51.096;16.976;2022-09-17T14:12:21;3.70;;;1.20;;
59685;SDS011;45554;51.096;16.976;2022-09-17T14:18:01;4.10;;;1.30;;
59685;SDS011;45554;51.096;16.976;2022-09-17T14:20:49;3.20;;;1.30;;
59685;SDS011;45554;51.096;16.976;2022-09-17T14:23:20;3.40;;;1.40;;
59685;SDS011;45554;51.096;16.976;2022-09-17T14:25:51;5.60;;;1.10;;
59685;SDS011;45554;51.096;16.976;2022-09-17T14:31:21;5.20;;;1.50;;
59685;SDS011;45554;51.096;16.976;2022-09-17T14:33:57;4.40;;;1.10;;
59685;SDS011;45554;51.096;16.976;2022-09-17T14:36:29;4.60;;;1.20;;
59685;SDS011;45554;51.096;16.976;2022-09-17T14:39:07;3.50;;;1.10;;
59685;SDS011;45554;51.096;16.976;2022-09-17T14:41:44;4.10;;;1.10;;
59685;SDS011;45554;51.096;16.976;2022-09-17T14:44:18;4.10;;;1.10;;
59685;SDS011;45554;51.096;16.976;2022-09-17T14:46:51;4.30;;;0.90;;
59685;SDS011;45554;51.096;16.976;2022-09-17T14:49:27;4.50;;;1.00;;
59685;SDS011;45554;51.096;16.976;2022-09-17T14:51:59;2.00;;;0.90;;
59685;SDS011;45554;51.096;16.976;2022-09-17T14:54:32;4.00;;;0.90;;
59685;SDS011;45554;51.096;16.976;2022-09-17T14:59:51;5.90;;;2.30;;
59685;SDS011;45554;51.096;16.976;2022-09-17T15:02:30;7.20;;;2.40;;
59685;SDS011;45554;51.096;16.976;2022-09-17T15:05:16;6.40;;;2.60;;
59685;SDS011;45554;51.096;16.976;2022-09-17T15:07:45;4.20;;;1.10;;
59685;SDS011;45554;51.096;16.976;2022-09-17T15:10:18;3.40;;;1.00;;
59685;SDS011;45554;51.096;16.976;2022-09-17T15:12:52;4.50;;;1.00;;
59685;SDS011;45554;51.096;16.976;2022-09-17T15:15:22;5.10;;;1.00;;
59685;SDS011;45554;51.096;16.976;2022-09-17T15:17:53;3.30;;;0.90;;
59685;SDS011;45554;51.096;16.976;2022-09-17T15:20:23;4.90;;;0.90;;
59685;SDS011;45554;51.096;16.976;2022-09-17T15:25:40;3.00;;;1.10;;
59685;SDS011;45554;51.096;16.976;2022-09-17T15:28:26;5.30;;;1.10;;
59685;SDS011;45554;51.096;16.976;2022-09-17T15:30:57;5.30;;;1.20;;
59685;SDS011;45554;51.096;16.976;2022-09-17T15:33:27;2.30;;;0.90;;
59685;SDS011;45554;51.096;16.976;2022-09-17T15:35:59;5.20;;;1.10;;
59685;SDS011;45554;51.096;16.976;2022-09-17T15:38:48;5.00;;;1.40;;
59685;SDS011;45554;51.096;16.976;2022-09-17T15:41:36;4.60;;;1.20;;
59685;SDS011;45554;51.096;16.976;2022-09-17T15:50:11;5.20;;;1.40;;
59685;SDS011;45554;51.096;16.976;2022-09-17T15:55:56;3.50;;;1.10;;
59685;SDS011;45554;51.096;16.976;2022-09-17T16:08:53;3.10;;;1.20;;
59685;SDS011;45554;51.096;16.976;2022-09-17T16:11:28;6.20;;;1.10;;
59685;SDS011;45554;51.096;16.976;2022-09-17T16:13:57;2.90;;;1.00;;
59685;SDS011;45554;51.096;16.976;2022-09-17T16:16:32;3.70;;;1.10;;
59685;SDS011;45554;51.096;16.976;2022-09-17T16:19:08;3.40;;;0.90;;
59685;SDS011;45554;51.096;16.976;2022-09-17T16:21:48;5.10;;;1.20;;
59685;SDS011;45554;51.096;16.976;2022-09-17T16:24:18;4.80;;;1.70;;
59685;SDS011;45554;51.096;16.976;2022-09-17T16:26:46;3.30;;;1.10;;
59685;SDS011;45554;51.096;16.976;2022-09-17T16:29:22;3.80;;;1.10;;
59685;SDS011;45554;51.096;16.976;2022-09-17T16:31:59;3.10;;;1.00;;
59685;SDS011;45554;51.096;16.976;2022-09-17T16:34:31;3.50;;;1.00;;
59685;SDS011;45554;51.096;16.976;2022-09-17T16:37:19;4.40;;;1.30;;
59685;SDS011;45554;51.096;16.976;2022-09-17T16:40:17;3.20;;;1.10;;
59685;SDS011;45554;51.096;16.976;2022-09-17T16:42:46;6.30;;;1.40;;
59685;SDS011;45554;51.096;16.976;2022-09-17T16:45:15;6.80;;;2.10;;
59685;SDS011;45554;51.096;16.976;2022-09-17T16:47:45;5.60;;;1.40;;
59685;SDS011;45554;51.096;16.976;2022-09-17T16:50:16;3.60;;;1.10;;
59685;SDS011;45554;51.096;16.976;2022-09-17T16:52:45;6.90;;;1.10;;
59685;SDS011;45554;51.096;16.976;2022-09-17T16:55:15;4.80;;;1.00;;
59685;SDS011;45554;51.096;16.976;2022-09-17T16:57:44;5.50;;;1.20;;
59685;SDS011;45554;51.096;16.976;2022-09-17T17:00:14;3.60;;;1.00;;
59685;SDS011;45554;51.096;16.976;2022-09-17T17:02:51;5.70;;;1.30;;
59685;SDS011;45554;51.096;16.976;2022-09-17T17:05:21;3.90;;;1.10;;
59685;SDS011;45554;51.096;16.976;2022-09-17T17:07:50;6.30;;;1.30;;
59685;SDS011;45554;51.096;16.976;2022-09-17T17:10:18;3.30;;;1.30;;
59685;SDS011;45554;51.096;16.976;2022-09-17T17:12:49;5.40;;;1.20;;
59685;SDS011;45554;51.096;16.976;2022-09-17T17:15:17;6.20;;;2.00;;
59685;SDS011;45554;51.096;16.976;2022-09-17T17:17:49;5.50;;;1.40;;
59685;SDS011;45554;51.096;16.976;2022-09-17T17:20:18;5.50;;;1.40;;
59685;SDS011;45554;51.096;16.976;2022-09-17T17:22:47;6.30;;;1.20;;
59685;SDS011;45554;51.096;16.976;2022-09-17T17:25:17;5.40;;;1.60;;
59685;SDS011;45554;51.096;16.976;2022-09-17T17:27:46;6.20;;;1.40;;
59685;SDS011;45554;51.096;16.976;2022-09-17T17:30:14;3.90;;;1.60;;
59685;SDS011;45554;51.096;16.976;2022-09-17T17:32:48;5.40;;;1.70;;
59685;SDS011;45554;51.096;16.976;2022-09-17T17:35:24;4.40;;;1.40;;
59685;SDS011;45554;51.096;16.976;2022-09-17T17:37:53;6.10;;;1.30;;
59685;SDS011;45554;51.096;16.976;2022-09-17T17:40:23;5.00;;;1.50;;
59685;SDS011;45554;51.096;16.976;2022-09-17T17:42:51;4.70;;;1.80;;
59685;SDS011;45554;51.096;16.976;2022-09-17T17:45:20;6.20;;;1.40;;
59685;SDS011;45554;51.096;16.976;2022-09-17T17:47:48;5.90;;;1.50;;
59685;SDS011;45554;51.096;16.976;2022-09-17T17:50:22;7.50;;;1.70;;
59685;SDS011;45554;51.096;16.976;2022-09-17T17:52:53;7.00;;;1.60;;
59685;SDS011;45554;51.096;16.976;2022-09-17T17:57:58;5.20;;;1.50;;
59685;SDS011;45554;51.096;16.976;2022-09-17T18:00:28;6.50;;;1.70;;
59685;SDS011;45554;51.096;16.976;2022-09-17T18:03:02;3.90;;;1.30;;
59685;SDS011;45554;51.096;16.976;2022-09-17T18:05:31;5.20;;;1.50;;
59685;SDS011;45554;51.096;16.976;2022-09-17T18:08:05;5.60;;;1.40;;
59685;SDS011;45554;51.096;16.976;2022-09-17T18:10:59;4.00;;;1.50;;
59685;SDS011;45554;51.096;16.976;2022-09-17T18:13:33;6.90;;;2.20;;
59685;SDS011;45554;51.096;16.976;2022-09-17T18:16:06;6.70;;;1.50;;
59685;SDS011;45554;51.096;16.976;2022-09-17T18:18:39;5.70;;;1.80;;
59685;SDS011;45554;51.096;16.976;2022-09-17T18:21:12;5.50;;;1.90;;
59685;SDS011;45554;51.096;16.976;2022-09-17T18:23:43;6.70;;;2.10;;
59685;SDS011;45554;51.096;16.976;2022-09-17T18:26:12;6.40;;;1.80;;
59685;SDS011;45554;51.096;16.976;2022-09-17T18:28:42;7.70;;;1.90;;
59685;SDS011;45554;51.096;16.976;2022-09-17T18:34:10;4.20;;;1.60;;
59685;SDS011;45554;51.096;16.976;2022-09-17T18:36:42;6.70;;;1.50;;
59685;SDS011;45554;51.096;16.976;2022-09-17T18:39:20;5.70;;;1.80;;
59685;SDS011;45554;51.096;16.976;2022-09-17T18:42:08;5.80;;;1.70;;
59685;SDS011;45554;51.096;16.976;2022-09-17T18:44:38;6.20;;;1.40;;
59685;SDS011;45554;51.096;16.976;2022-09-17T18:47:13;5.70;;;1.70;;
59685;SDS011;45554;51.096;16.976;2022-09-17T18:49:44;7.80;;;1.70;;
59685;SDS011;45554;51.096;16.976;2022-09-17T18:52:17;8.10;;;1.70;;
59685;SDS011;45554;51.096;16.976;2022-09-17T18:54:46;5.20;;;1.60;;
59685;SDS011;45554;51.096;16.976;2022-09-17T18:57:14;6.20;;;1.80;;
59685;SDS011;45554;51.096;16.976;2022-09-17T18:59:42;6.90;;;1.90;;
59685;SDS011;45554;51.096;16.976;2022-09-17T19:02:11;4.50;;;1.40;;
59685;SDS011;45554;51.096;16.976;2022-09-17T19:04:40;6.30;;;1.60;;
59685;SDS011;45554;51.096;16.976;2022-09-17T19:07:08;5.70;;;1.60;;
59685;SDS011;45554;51.096;16.976;2022-09-17T19:10:07;5.30;;;2.10;;
59685;SDS011;45554;51.096;16.976;2022-09-17T19:12:45;6.70;;;1.60;;
59685;SDS011;45554;51.096;16.976;2022-09-17T19:15:16;7.50;;;1.60;;
59685;SDS011;45554;51.096;16.976;2022-09-17T19:17:52;4.70;;;1.70;;
59685;SDS011;45554;51.096;16.976;2022-09-17T19:20:24;5.70;;;1.80;;
59685;SDS011;45554;51.096;16.976;2022-09-17T19:22:57;7.10;;;1.80;;
59685;SDS011;45554;51.096;16.976;2022-09-17T19:25:28;5.30;;;1.70;;
59685;SDS011;45554;51.096;16.976;2022-09-17T19:28:04;6.30;;;1.80;;